Big Bear Station Historical Data
Daily Summary for May 1, 2019 Units:  English    Metric   Both
Next Day »
Daily Weekly Monthly Yearly Custom
  High: Low: Average:
Temperature: 63.9 °F 29.7 °F 46 °F
Dew Point: 45.3 °F 18.6 °F 31.4 °F
Humidity: 84% 31% 59%
Wind Speed: 6.8mph 0mph 2mph
Wind Gust: -999mph - -
Wind- - WNW
Pressure: 23.50 in 23.39 in -
Precipitation: 0 in    
Historical Graphs
 
 
Tabular Data for May 1, 2019
Time Temperature Dew Point Pressure Wind Wind Speed Wind Gust Humidity Rainfall Rate (Hourly)
00:00 34.2 °F 29 °F 23.40 in Calm   -999 mph 81% 0.00 in
00:15 34 °F 28.5 °F 23.40 in Calm   -999 mph 80% 0.00 in
00:30 34.5 °F 29 °F 23.40 in Calm   -999 mph 80% 0.00 in
00:45 34.5 °F 27.1 °F 23.40 in Calm   -999 mph 74% 0.00 in
01:01 34.3 °F 25.5 °F 23.40 in Calm   -999 mph 70% 0.00 in
01:16 34.7 °F 26.6 °F 23.40 in South 2.7 mph -999 mph 72% 0.00 in
01:31 34.7 °F 25.2 °F 23.40 in Calm   -999 mph 68% 0.00 in
01:46 35.1 °F 26 °F 23.40 in Calm   -999 mph 69% 0.00 in
02:01 35.4 °F 25.2 °F 23.39 in Calm   -999 mph 66% 0.00 in
02:17 35.2 °F 24.2 °F 23.40 in Calm   -999 mph 64% 0.00 in
02:32 35.4 °F 22.9 °F 23.39 in South 3.2 mph -999 mph 60% 0.00 in
02:48 34.5 °F 25 °F 23.40 in South 2.2 mph -999 mph 68% 0.00 in
03:03 34.2 °F 26.8 °F 23.39 in Calm   -999 mph 74% 0.00 in
03:18 33.6 °F 26.5 °F 23.39 in South 3.7 mph -999 mph 75% 0.00 in
03:33 34 °F 26.3 °F 23.39 in ESE 3.2 mph -999 mph 73% 0.00 in
03:49 32.9 °F 24.5 °F 23.40 in SW 2.2 mph -999 mph 71% 0.00 in
04:04 32.5 °F 24.1 °F 23.40 in Calm   -999 mph 71% 0.00 in
04:19 32.5 °F 22.4 °F 23.40 in Calm   -999 mph 66% 0.00 in
04:34 32.4 °F 21.6 °F 23.40 in Calm   -999 mph 64% 0.00 in
04:49 31.5 °F 18.8 °F 23.40 in Calm   -999 mph 59% 0.00 in
05:05 31.5 °F 19.2 °F 23.40 in Calm   -999 mph 60% 0.00 in
05:20 30.9 °F 18.6 °F 23.39 in Calm   -999 mph 60% 0.00 in
05:35 30.6 °F 19.1 °F 23.39 in Calm   -999 mph 62% 0.00 in
05:50 30.2 °F 19.5 °F 23.39 in Calm   -999 mph 64% 0.00 in
06:05 30.2 °F 19.5 °F 23.40 in Calm   -999 mph 64% 0.00 in
06:21 29.7 °F 20.4 °F 23.40 in Calm   -999 mph 68% 0.00 in
06:36 29.8 °F 22.2 °F 23.41 in Calm   -999 mph 73% 0.00 in
06:51 30.2 °F 22.9 °F 23.41 in Calm   -999 mph 74% 0.00 in
07:06 30 °F 24.6 °F 23.41 in Calm   -999 mph 80% 0.00 in
07:21 31.1 °F 26.8 °F 23.42 in Calm   -999 mph 84% 0.00 in
07:37 31.8 °F 26.9 °F 23.43 in WNW 2.2 mph -999 mph 82% 0.00 in
07:52 33.8 °F 27.4 °F 23.43 in Calm   -999 mph 77% 0.00 in
08:08 35.6 °F 27.5 °F 23.43 in Calm   -999 mph 72% 0.00 in
08:23 36.7 °F 26.8 °F 23.43 in Calm   -999 mph 67% 0.00 in
08:38 39.2 °F 27.7 °F 23.43 in Calm   -999 mph 63% 0.00 in
08:53 40.8 °F 29.6 °F 23.43 in Calm   -999 mph 64% 0.00 in
09:08 44.1 °F 31.9 °F 23.43 in NNE 3.7 mph -999 mph 62% 0.00 in
09:24 46.2 °F 32.2 °F 23.43 in NNW 3.2 mph -999 mph 58% 0.00 in
09:39 48 °F 30.7 °F 23.43 in WNW 3.2 mph -999 mph 51% 0.00 in
09:54 50 °F 29.5 °F 23.43 in NNW 4.7 mph -999 mph 45% 0.00 in
10:09 51.8 °F 28.2 °F 23.43 in NNW 4.2 mph -999 mph 40% 0.00 in
10:25 52.9 °F 26.7 °F 23.43 in NW 3.7 mph -999 mph 36% 0.00 in
10:40 55.2 °F 25.1 °F 23.44 in NNW 3.7 mph -999 mph 31% 0.00 in
10:56 57.2 °F 29.8 °F 23.44 in NW 4.7 mph -999 mph 35% 0.00 in
11:11 58.3 °F 29.3 °F 23.44 in NW 4.7 mph -999 mph 33% 0.00 in
11:26 58.8 °F 32.6 °F 23.44 in NNW 5.8 mph -999 mph 37% 0.00 in
11:41 60.3 °F 32.5 °F 23.44 in WNW 4.7 mph -999 mph 35% 0.00 in
11:57 60.4 °F 36.6 °F 23.44 in NW 6.8 mph -999 mph 41% 0.00 in
12:12 60.8 °F 36.9 °F 23.44 in NW 4.7 mph -999 mph 41% 0.00 in
12:27 61 °F 37.7 °F 23.45 in NW 6.3 mph -999 mph 42% 0.00 in
12:44 61 °F 37.7 °F 23.44 in NNW 5.3 mph -999 mph 42% 0.00 in
12:59 61.3 °F 40.3 °F 23.45 in NW 5.3 mph -999 mph 46% 0.00 in
13:14 61.3 °F 40.3 °F 23.45 in NW 4.7 mph -999 mph 46% 0.00 in
13:29 62.6 °F 41 °F 23.45 in NW 5.3 mph -999 mph 45% 0.00 in
13:45 62.8 °F 42.3 °F 23.45 in NNW 4.2 mph -999 mph 47% 0.00 in
14:00 62.6 °F 44.2 °F 23.45 in NW 5.8 mph -999 mph 51% 0.00 in
14:15 62.1 °F 45.3 °F 23.45 in NNW 6.3 mph -999 mph 54% 0.00 in
14:31 61.2 °F 44.9 °F 23.45 in NW 5.8 mph -999 mph 55% 0.00 in
14:46 60.3 °F 42.6 °F 23.45 in ESE 5.3 mph -999 mph 52% 0.00 in
15:01 60.6 °F 43.9 °F 23.45 in SSW 3.2 mph -999 mph 54% 0.00 in
15:16 59.9 °F 42.7 °F 23.45 in WNW 3.2 mph -999 mph 53% 0.00 in
15:31 60.4 °F 44.2 °F 23.45 in NW 3.7 mph -999 mph 55% 0.00 in
15:47 58.5 °F 43.8 °F 23.45 in NNW 3.7 mph -999 mph 58% 0.00 in
16:02 58.3 °F 43.6 °F 23.45 in WNW 5.3 mph -999 mph 58% 0.00 in
16:18 58.1 °F 43.4 °F 23.45 in NNE 3.7 mph -999 mph 58% 0.00 in
16:33 57.9 °F 43.2 °F 23.45 in WNW 4.2 mph -999 mph 58% 0.00 in
16:48 61.2 °F 43.4 °F 23.45 in NW 5.3 mph -999 mph 52% 0.00 in
17:03 63.9 °F 42.7 °F 23.44 in Calm   -999 mph 46% 0.00 in
17:19 62.8 °F 38.7 °F 23.44 in NNW 4.2 mph -999 mph 41% 0.00 in
17:35 62.8 °F 37.5 °F 23.44 in NNW 3.2 mph -999 mph 39% 0.00 in
17:50 62.2 °F 36.3 °F 23.44 in NNW 2.2 mph -999 mph 38% 0.00 in
18:05 62.8 °F 36.8 °F 23.44 in North 2.7 mph -999 mph 38% 0.00 in
18:20 63.7 °F 36.2 °F 23.44 in NW 3.7 mph -999 mph 36% 0.00 in
18:36 57.7 °F 34.8 °F 23.43 in NNW 2.7 mph -999 mph 42% 0.00 in
18:51 55 °F 34 °F 23.43 in NW 3.2 mph -999 mph 45% 0.00 in
19:07 53.2 °F 32.9 °F 23.43 in NW 2.7 mph -999 mph 46% 0.00 in
19:22 52.2 °F 30.9 °F 23.44 in Calm   -999 mph 44% 0.00 in
19:37 50.2 °F 30.7 °F 23.44 in Calm   -999 mph 47% 0.00 in
19:52 48 °F 29.7 °F 23.44 in Calm   -999 mph 49% 0.00 in
20:07 47.5 °F 28.3 °F 23.45 in Calm   -999 mph 47% 0.00 in
20:23 46.6 °F 29.4 °F 23.45 in Calm   -999 mph 51% 0.00 in
20:38 45.7 °F 30 °F 23.45 in Calm   -999 mph 54% 0.00 in
20:53 44.4 °F 30.1 °F 23.46 in Calm   -999 mph 57% 0.00 in
21:08 43.5 °F 30.5 °F 23.47 in Calm   -999 mph 60% 0.00 in
21:23 42.8 °F 31.1 °F 23.48 in Calm   -999 mph 63% 0.00 in
21:39 43.3 °F 33.1 °F 23.48 in Calm   -999 mph 67% 0.00 in
21:54 42.6 °F 33.5 °F 23.48 in Calm   -999 mph 70% 0.00 in
22:09 41.9 °F 32.8 °F 23.48 in Calm   -999 mph 70% 0.00 in
22:24 41.5 °F 33.5 °F 23.49 in Calm   -999 mph 73% 0.00 in
22:40 41 °F 33.7 °F 23.49 in Calm   -999 mph 75% 0.00 in
22:55 40.5 °F 33.2 °F 23.50 in Calm   -999 mph 75% 0.00 in
23:10 39.9 °F 32.6 °F 23.49 in Calm   -999 mph 75% 0.00 in
23:25 39.4 °F 32.5 °F 23.50 in Calm   -999 mph 76% 0.00 in
23:40 39.2 °F 32.6 °F 23.50 in Calm   -999 mph 77% 0.00 in
23:56 38.7 °F 33.1 °F 23.50 in Calm   -999 mph 80% 0.00 in
Big Bear CA Weather